Time;durP1;ratioP1;P1;durP2;ratioP2;P2;SDS_P1;SDS_P2;PMS_P1;PMS_P2;Temp;Humidity;BMP_temperature;BMP_pressure;BME280_temperature;BME280_humidity;BME280_pressure;Samples;Min_cycle;Max_cycle;Signal;HPM_P1;HPM_P2
2022/04/28 00:00:36;;;;;;;56.07;40.37;;;;;;;8.42;100.00;99705.56;2058158;28;20245;-81
2022/04/28 00:01:37;;;;;;;54.35;39.33;;;;;;;8.39;100.00;99713.31;2057148;28;20205;-81
2022/04/28 00:02:40;;;;;;;57.10;39.60;;;;;;;8.33;100.00;99704.47;2058532;28;20744;-80
2022/04/28 00:03:42;;;;;;;56.08;39.90;;;;;;;8.33;100.00;99703.69;2058072;28;20202;-81
2022/04/28 00:04:44;;;;;;;57.92;40.28;;;;;;;8.29;100.00;99710.59;2058278;28;20239;-80
2022/04/28 00:05:46;;;;;;;59.45;41.53;;;;;;;8.31;100.00;99713.78;2058679;28;20555;-80
2022/04/28 00:06:47;;;;;;;55.30;40.13;;;;;;;8.31;100.00;99709.28;2057244;28;20225;-81
2022/04/28 00:07:49;;;;;;;57.30;39.73;;;;;;;8.29;100.00;99706.09;2050169;29;20199;-81
2022/04/28 00:08:50;;;;;;;55.83;40.28;;;;;;;8.31;100.00;99714.59;2057992;28;20201;-80
2022/04/28 00:09:52;;;;;;;57.83;40.33;;;;;;;8.28;100.00;99703.69;2066293;28;20268;-80
2022/04/28 00:10:53;;;;;;;58.28;40.75;;;;;;;8.30;100.00;99714.84;2058624;28;20236;-80
2022/04/28 00:11:55;;;;;;;59.77;40.03;;;;;;;8.26;100.00;99706.63;2058787;28;20237;-80
2022/04/28 00:12:57;;;;;;;52.67;38.40;;;;;;;8.26;100.00;99709.28;2057803;28;20236;-80
2022/04/28 00:13:59;;;;;;;53.33;38.53;;;;;;;8.28;100.00;99711.69;2049942;28;20190;-80
2022/04/28 00:15:00;;;;;;;60.78;38.80;;;;;;;8.23;100.00;99713.25;2051049;28;20210;-79
2022/04/28 00:16:04;;;;;;;59.77;40.33;;;;;;;8.27;100.00;99712.75;2058007;28;20190;-80
2022/04/28 00:17:06;;;;;;;58.63;39.92;;;;;;;8.30;100.00;99709.53;2058693;28;20221;-80
2022/04/28 00:18:08;;;;;;;59.63;39.42;;;;;;;8.33;100.00;99712.47;2058715;28;20559;-80
2022/04/28 00:19:11;;;;;;;57.85;40.22;;;;;;;8.36;100.00;99717.28;2058773;28;20205;-80
2022/04/28 00:20:13;;;;;;;58.55;39.72;;;;;;;8.34;100.00;99708.75;2057721;28;20202;-80
2022/04/28 00:21:14;;;;;;;60.03;42.03;;;;;;;8.34;100.00;99711.41;2049318;28;20605;-80
2022/04/28 00:22:16;;;;;;;64.50;42.73;;;;;;;8.39;100.00;99705.31;2058219;28;20218;-80
2022/04/28 00:23:20;;;;;;;64.47;43.10;;;;;;;8.40;100.00;99706.91;2057694;28;20209;-80
2022/04/28 00:24:21;;;;;;;59.08;41.88;;;;;;;8.38;100.00;99704.53;2049712;28;20270;-80
2022/04/28 00:25:23;;;;;;;64.33;42.70;;;;;;;8.43;100.00;99706.41;2058042;28;20273;-80
2022/04/28 00:26:25;;;;;;;60.72;42.78;;;;;;;8.44;100.00;99714.09;2066100;28;20648;-80
2022/04/28 00:27:27;;;;;;;65.97;43.33;;;;;;;8.43;100.00;99707.19;2057783;28;20197;-80
2022/04/28 00:28:29;;;;;;;63.60;43.67;;;;;;;8.45;100.00;99705.06;2058090;28;20204;-80
2022/04/28 00:29:30;;;;;;;63.35;43.45;;;;;;;8.44;100.00;99708.00;2057783;28;20243;-80
2022/04/28 00:30:31;;;;;;;64.80;43.43;;;;;;;8.40;100.00;99704.25;2058198;28;20711;-80
2022/04/28 00:31:33;;;;;;;59.67;43.33;;;;;;;8.44;100.00;99705.34;2057596;28;20240;-79
2022/04/28 00:32:35;;;;;;;67.80;45.22;;;;;;;8.40;100.00;99705.06;2057862;28;20193;-80
2022/04/28 00:33:40;;;;;;;61.55;42.63;;;;;;;8.34;100.00;99706.09;2058660;28;20677;-80
2022/04/28 00:34:42;;;;;;;62.05;42.72;;;;;;;8.31;100.00;99703.94;2058475;28;20207;-80
2022/04/28 00:35:45;;;;;;;68.40;42.75;;;;;;;8.29;100.00;99703.44;2058697;28;20198;-80
2022/04/28 00:36:46;;;;;;;66.15;42.65;;;;;;;8.29;100.00;99708.75;2058656;28;20229;-80
2022/04/28 00:37:48;;;;;;;63.73;42.67;;;;;;;8.29;100.00;99698.13;2058443;28;20189;-80
2022/04/28 00:38:48;;;;;;;62.65;41.95;;;;;;;8.29;100.00;99706.09;2058127;28;20202;-80
2022/04/28 00:39:51;;;;;;;65.33;42.03;;;;;;;8.26;100.00;99705.81;2049714;29;20234;-80
2022/04/28 00:40:52;;;;;;;69.93;42.58;;;;;;;8.24;100.00;99711.38;2050042;28;20723;-80
2022/04/28 00:41:54;;;;;;;58.92;40.90;;;;;;;8.25;100.00;99706.88;2050147;28;20593;-80
2022/04/28 00:43:18;;;;;;;57.30;42.90;;;;;;;8.16;100.00;99707.38;2058015;28;20225;-80
2022/04/28 00:44:17;;;;;;;64.97;43.65;;;;;;;8.16;100.00;99709.25;2058111;28;20743;-80
2022/04/28 00:45:19;;;;;;;62.77;43.13;;;;;;;8.13;100.00;99712.44;2057763;28;20587;-80
2022/04/28 00:46:20;;;;;;;62.80;42.20;;;;;;;8.12;100.00;99716.97;2058999;28;20202;-80
2022/04/28 00:50:38;;;;;;;61.83;42.90;;;;;;;8.12;100.00;99710.84;2058372;28;20224;-80
2022/04/28 00:51:29;;;;;;;66.07;42.90;;;;;;;8.15;100.00;99715.63;2051984;28;20350;-80
2022/04/28 00:52:31;;;;;;;69.00;45.08;;;;;;;8.15;100.00;99712.97;2049721;28;20194;-80
2022/04/28 00:53:35;;;;;;;72.55;43.95;;;;;;;8.16;100.00;99714.56;2057902;28;20193;-80
2022/04/28 00:54:37;;;;;;;64.88;43.17;;;;;;;8.15;100.00;99713.75;2058507;28;20218;-80
2022/04/28 00:55:39;;;;;;;73.28;43.60;;;;;;;8.16;100.00;99714.56;2058522;28;20719;-80
2022/04/28 00:56:45;;;;;;;63.45;43.78;;;;;;;8.15;100.00;99712.97;2057898;28;20730;-80
2022/04/28 00:57:47;;;;;;;61.08;42.78;;;;;;;8.15;100.00;99712.97;2050190;28;20202;-80
2022/04/28 00:58:50;;;;;;;63.00;41.88;;;;;;;8.16;100.00;99711.91;2049706;28;20202;-79
2022/04/28 00:59:51;;;;;;;64.15;43.05;;;;;;;8.12;100.00;99714.31;2049532;28;20296;-79
2022/04/28 01:00:53;;;;;;;64.93;42.63;;;;;;;8.14;100.00;99717.50;2057533;28;20680;-79
2022/04/28 01:01:55;;;;;;;63.05;43.65;;;;;;;8.13;100.00;99717.75;2065906;28;20557;-79
2022/04/28 01:02:58;;;;;;;62.08;43.60;;;;;;;8.16;100.00;99725.19;2058379;28;20197;-79
2022/04/28 01:04:01;;;;;;;69.78;44.97;;;;;;;8.17;100.00;99718.84;2065608;28;20611;-80
2022/04/28 01:05:04;;;;;;;61.30;42.22;;;;;;;8.18;100.00;99715.91;2064728;28;20220;-79
2022/04/28 01:06:04;;;;;;;62.38;41.95;;;;;;;8.20;100.00;99723.63;2048738;28;20297;-79
2022/04/28 01:07:07;;;;;;;67.00;42.27;;;;;;;8.20;100.00;99718.31;2057747;28;20704;-80
2022/04/28 01:08:08;;;;;;;65.22;43.65;;;;;;;8.19;100.00;99719.38;2057473;28;20260;-79
2022/04/28 01:09:11;;;;;;;64.13;42.40;;;;;;;8.19;100.00;99717.50;2049734;28;20202;-79
2022/04/28 01:10:14;;;;;;;68.00;41.78;;;;;;;8.21;100.00;99722.56;2049577;28;20198;-80
2022/04/28 01:11:16;;;;;;;64.10;41.30;;;;;;;8.23;100.00;99723.09;2049497;28;20194;-80
2022/04/28 01:12:34;;;;;;;64.10;42.55;;;;;;;8.16;100.00;99715.34;2051873;28;20285;-81
2022/04/28 01:13:34;;;;;;;62.40;41.10;;;;;;;8.14;100.00;99722.81;2049581;28;20194;-80
2022/04/28 01:14:44;;;;;;;60.88;40.88;;;;;;;8.11;100.00;99722.53;2050587;28;20183;-81
2022/04/28 01:15:46;;;;;;;65.30;41.45;;;;;;;8.13;100.00;99723.06;2049550;28;20202;-80
2022/04/28 01:16:48;;;;;;;66.35;43.15;;;;;;;8.18;100.00;99720.44;2049634;28;20580;-80
2022/04/28 01:17:50;;;;;;;61.95;42.22;;;;;;;8.19;100.00;99719.38;2057346;28;20701;-80
2022/04/28 01:18:54;;;;;;;64.28;42.65;;;;;;;8.17;100.00;99724.16;2065481;28;20201;-81
2022/04/28 01:19:56;;;;;;;66.38;44.05;;;;;;;8.15;100.00;99724.41;2056772;28;20232;-80
2022/04/28 01:21:03;;;;;;;70.55;44.67;;;;;;;8.18;100.00;99721.22;2048761;28;20293;-79
2022/04/28 01:22:04;;;;;;;67.25;43.80;;;;;;;8.20;100.00;99715.66;2057451;28;20589;-79
2022/04/28 01:23:06;;;;;;;65.40;43.25;;;;;;;8.21;100.00;99718.03;2057632;28;20201;-80
2022/04/28 01:24:08;;;;;;;71.40;44.05;;;;;;;8.20;100.00;99713.00;2057503;28;20723;-80
2022/04/28 01:25:14;;;;;;;64.90;42.83;;;;;;;8.17;100.00;99708.22;2058161;28;20695;-80
2022/04/28 01:26:17;;;;;;;66.78;45.63;;;;;;;8.13;100.00;99713.25;2057632;28;20193;-80
2022/04/28 01:27:18;;;;;;;65.20;43.80;;;;;;;8.11;100.00;99710.06;2057572;28;20201;-80
2022/04/28 01:28:20;;;;;;;61.55;43.45;;;;;;;8.12;100.00;99705.53;2057429;28;20606;-80
2022/04/28 01:29:22;;;;;;;62.78;43.30;;;;;;;8.10;100.00;99710.31;2049572;28;20201;-80
2022/04/28 01:30:24;;;;;;;68.25;45.22;;;;;;;8.10;100.00;99710.31;2049515;28;20216;-80
2022/04/28 01:31:31;;;;;;;71.10;43.88;;;;;;;8.07;100.00;99702.84;2049214;29;20226;-80
2022/04/28 01:32:36;;;;;;;66.30;44.63;;;;;;;8.17;100.00;99705.56;2050159;28;20221;-80
2022/04/28 01:33:37;;;;;;;68.25;45.30;;;;;;;8.12;100.00;99710.84;2049348;29;20198;-80
2022/04/28 01:34:42;;;;;;;72.22;46.28;;;;;;;8.13;100.00;99712.44;2041826;29;20195;-80
2022/04/28 01:35:43;;;;;;;66.68;44.97;;;;;;;8.12;100.00;99713.50;2049459;28;20245;-80
2022/04/28 01:36:46;;;;;;;64.47;44.60;;;;;;;8.13;100.00;99707.13;2049040;29;20226;-80
2022/04/28 01:37:47;;;;;;;70.45;44.45;;;;;;;8.13;100.00;99715.09;2041679;29;20501;-80
2022/04/28 01:38:51;;;;;;;70.80;44.88;;;;;;;8.11;100.00;99717.22;2049619;28;20198;-80
2022/04/28 01:39:55;;;;;;;72.28;45.58;;;;;;;8.16;100.00;99719.88;2049335;29;20194;-80
2022/04/28 01:40:58;;;;;;;67.55;44.05;;;;;;;8.13;100.00;99709.78;2042142;29;20203;-80
2022/04/28 01:41:59;;;;;;;62.40;41.42;;;;;;;8.13;100.00;99721.22;2049397;28;20206;-80
2022/04/28 01:43:01;;;;;;;64.23;43.50;;;;;;;8.09;100.00;99719.34;2049291;29;20681;-80
2022/04/28 01:44:02;;;;;;;67.97;45.00;;;;;;;8.05;100.00;99718.28;2049505;28;20449;-80
2022/04/28 01:45:08;;;;;;;69.47;46.28;;;;;;;8.01;100.00;99720.66;2049142;29;20261;-80
2022/04/28 01:46:13;;;;;;;70.80;46.47;;;;;;;8.02;100.00;99721.47;2042546;29;20325;-79
2022/04/28 01:47:43;;;;;;;67.18;44.30;;;;;;;7.97;100.00;99721.44;2037493;28;20247;-79
2022/04/28 01:49:18;;;;;;;69.43;44.25;;;;;;;7.93;100.00;99714.00;2049375;29;20191;-80
2022/04/28 01:50:29;;;;;;;67.63;45.65;;;;;;;7.91;100.00;99725.97;2049658;29;20173;-80
2022/04/28 01:55:00;;;;;;;65.55;43.75;;;;;;;7.74;100.00;99723.53;2046606;29;20197;-80
2022/04/28 01:56:27;;;;;;;68.28;44.55;;;;;;;7.70;100.00;99725.06;2046885;29;20240;-80
2022/04/28 01:57:35;;;;;;;80.20;47.70;;;;;;;7.70;100.00;99729.59;2049299;29;20671;-80
2022/04/28 01:58:59;;;;;;;76.90;47.65;;;;;;;7.64;100.00;99728.78;2042674;29;20214;-80
2022/04/28 02:00:22;;;;;;;72.50;46.60;;;;;;;7.60;100.00;99725.84;2033409;29;20215;-79
2022/04/28 02:01:30;;;;;;;77.60;48.95;;;;;;;7.59;100.00;99728.75;2055732;28;20233;-80
2022/04/28 02:02:34;;;;;;;72.97;47.67;;;;;;;7.55;100.00;99731.13;2057127;28;20297;-79
2022/04/28 02:03:36;;;;;;;78.85;49.22;;;;;;;7.54;100.00;99732.19;2049162;29;20202;-79
2022/04/28 02:04:38;;;;;;;76.80;48.53;;;;;;;7.56;100.00;99739.91;2049715;29;20229;-79
2022/04/28 02:05:38;;;;;;;77.53;48.38;;;;;;;7.47;100.00;99726.34;2057282;28;20293;-79
2022/04/28 02:06:43;;;;;;;76.18;47.92;;;;;;;7.46;100.00;99735.34;2049039;28;20632;-79
2022/04/28 02:07:44;;;;;;;82.97;48.13;;;;;;;7.42;100.00;99728.16;2049282;29;20202;-80
2022/04/28 02:08:50;;;;;;;72.65;47.88;;;;;;;7.45;100.00;99727.63;2049279;29;20186;-79
2022/04/28 02:09:51;;;;;;;86.65;51.45;;;;;;;7.40;100.00;99720.47;2049790;28;20234;-79
2022/04/28 02:10:53;;;;;;;77.03;48.38;;;;;;;7.43;100.00;99729.75;2048725;29;20198;-79
2022/04/28 02:12:15;;;;;;;76.05;48.63;;;;;;;7.44;100.00;99726.03;2049417;29;20210;-80
2022/04/28 02:13:36;;;;;;;77.30;49.47;;;;;;;7.39;100.00;99731.34;2041430;29;20582;-79
2022/04/28 02:15:14;;;;;;;77.63;48.42;;;;;;;7.43;100.00;99727.09;2049147;29;20194;-79
2022/04/28 02:16:35;;;;;;;78.40;48.00;;;;;;;7.40;100.00;99724.97;2049341;29;20178;-79
2022/04/28 02:17:55;;;;;;;77.47;48.47;;;;;;;7.38;100.00;99730.50;2047360;29;20758;-79
2022/04/28 02:18:55;;;;;;;78.63;49.63;;;;;;;7.36;100.00;99730.78;2041413;29;20289;-79
2022/04/28 02:19:57;;;;;;;79.97;49.20;;;;;;;7.34;100.00;99724.94;2041528;29;20194;-79
2022/04/28 02:20:58;;;;;;;75.05;48.35;;;;;;;7.32;100.00;99727.06;2048537;29;20622;-78
2022/04/28 02:22:00;;;;;;;77.60;48.97;;;;;;;7.31;100.00;99728.09;2049907;29;20179;-79
2022/04/28 02:23:02;;;;;;;80.40;48.53;;;;;;;7.30;100.00;99726.53;2050107;28;20198;-79
2022/04/28 02:24:07;;;;;;;81.05;48.20;;;;;;;7.28;100.00;99720.66;2049117;28;20265;-79
2022/04/28 02:25:10;;;;;;;74.10;47.80;;;;;;;7.25;100.00;99728.34;2050771;28;20214;-80
2022/04/28 02:26:11;;;;;;;78.72;49.20;;;;;;;7.22;100.00;99724.34;2050734;29;20686;-79
2022/04/28 02:27:12;;;;;;;78.13;48.23;;;;;;;7.21;100.00;99733.38;2050780;29;20625;-79
2022/04/28 02:28:13;;;;;;;83.20;50.20;;;;;;;7.16;100.00;99729.88;2058959;28;20201;-79
2022/04/28 02:29:18;;;;;;;73.20;48.85;;;;;;;7.10;100.00;99723.72;2050827;29;20265;-80
2022/04/28 02:30:19;;;;;;;78.28;48.88;;;;;;;7.09;100.00;99733.53;2043172;29;20199;-79
2022/04/28 02:31:22;;;;;;;79.38;48.92;;;;;;;7.02;100.00;99719.69;2054463;28;20229;-79
2022/04/28 02:32:22;;;;;;;77.88;48.10;;;;;;;7.00;100.00;99727.13;2066807;28;20193;-80
2022/04/28 02:33:24;;;;;;;82.70;51.40;;;;;;;7.02;100.00;99732.97;2050852;29;20249;-79
2022/04/28 02:34:44;;;;;;;83.15;51.85;;;;;;;7.01;100.00;99739.34;2045337;29;20186;-79
2022/04/28 02:35:45;;;;;;;81.13;49.10;;;;;;;6.98;100.00;99733.75;2043128;29;20210;-79
2022/04/28 02:36:49;;;;;;;78.88;50.83;;;;;;;6.96;100.00;99733.22;2042614;29;20340;-79
2022/04/28 02:37:50;;;;;;;85.55;52.20;;;;;;;7.01;100.00;99736.69;2043393;29;20235;-80
2022/04/28 02:38:53;;;;;;;86.18;52.40;;;;;;;7.00;100.00;99734.28;2042881;29;20199;-79
2022/04/28 02:39:56;;;;;;;82.28;51.13;;;;;;;6.98;100.00;99733.75;2051053;29;20226;-79
2022/04/28 02:40:57;;;;;;;80.47;52.30;;;;;;;7.00;100.00;99737.72;2050944;29;20210;-79
2022/04/28 02:41:59;;;;;;;88.35;51.58;;;;;;;7.00;100.00;99736.94;2050845;29;20305;-79
2022/04/28 02:43:01;;;;;;;80.63;51.58;;;;;;;6.97;100.00;99738.25;2050979;29;20194;-79
2022/04/28 02:44:03;;;;;;;82.63;51.63;;;;;;;6.98;100.00;99733.75;2050614;29;20230;-79
2022/04/28 02:45:07;;;;;;;81.90;51.35;;;;;;;6.98;100.00;99742.50;2042476;29;20202;-80
2022/04/28 02:46:10;;;;;;;79.47;50.35;;;;;;;6.96;100.00;99733.22;2043450;29;20191;-79
2022/04/28 02:47:50;;;;;;;76.30;47.33;;;;;;;6.96;100.00;99735.88;2044482;28;20238;-80
2022/04/28 02:48:50;;;;;;;76.38;49.33;;;;;;;6.95;100.00;99739.53;2050920;28;20206;-80
2022/04/28 02:49:55;;;;;;;80.00;49.75;;;;;;;6.91;100.00;99733.16;2050642;29;20209;-80
2022/04/28 02:50:57;;;;;;;75.20;48.05;;;;;;;6.90;100.00;99734.22;2042734;29;20214;-79
2022/04/28 02:51:59;;;;;;;86.53;50.50;;;;;;;6.85;100.00;99732.31;2042790;29;20222;-80
2022/04/28 02:53:00;;;;;;;80.85;49.92;;;;;;;6.86;100.00;99738.41;2042732;29;20706;-80
2022/04/28 02:54:05;;;;;;;76.95;49.45;;;;;;;6.88;100.00;99739.00;2051301;28;20206;-80
2022/04/28 02:55:10;;;;;;;80.13;49.95;;;;;;;6.88;100.00;99733.69;2050522;29;20693;-80
2022/04/28 02:56:15;;;;;;;78.70;50.63;;;;;;;6.90;100.00;99737.69;2042902;29;20220;-80
2022/04/28 02:57:16;;;;;;;81.90;50.55;;;;;;;6.86;100.00;99733.91;2050690;29;20286;-80
2022/04/28 02:58:21;;;;;;;79.50;50.03;;;;;;;6.88;100.00;99742.44;2050459;29;20183;-80
2022/04/28 02:59:21;;;;;;;84.97;52.50;;;;;;;6.88;100.00;99737.13;2042834;29;20203;-80
2022/04/28 03:00:23;;;;;;;78.07;49.13;;;;;;;6.83;100.00;99741.59;2042253;29;20286;-80
2022/04/28 03:01:31;;;;;;;80.78;50.47;;;;;;;6.82;100.00;99746.09;2051727;28;20725;-80
2022/04/28 03:02:33;;;;;;;82.73;49.50;;;;;;;6.79;100.00;99746.63;2058636;28;20555;-79
2022/04/28 03:03:36;;;;;;;81.00;50.55;;;;;;;6.75;100.00;99740.22;2050514;28;20199;-80
2022/04/28 03:04:40;;;;;;;77.22;50.58;;;;;;;6.70;100.00;99740.97;2059211;28;20198;-79
2022/04/28 03:11:15;;;;;;;80.53;49.80;;;;;;;6.69;100.00;99750.00;2026593;29;20212;-79
2022/04/28 03:12:16;;;;;;;75.95;49.45;;;;;;;6.66;100.00;99747.81;2035104;29;20265;-79
2022/04/28 03:13:32;;;;;;;80.50;49.65;;;;;;;6.70;100.00;99756.91;2050566;29;20218;-80
2022/04/28 03:14:34;;;;;;;84.05;51.50;;;;;;;6.69;100.00;99762.44;2051541;29;20214;-80
2022/04/28 03:15:36;;;;;;;87.60;51.88;;;;;;;6.65;100.00;99759.50;2042503;29;20203;-79
2022/04/28 03:16:38;;;;;;;88.47;53.10;;;;;;;6.64;100.00;99757.91;2042472;29;20210;-79
2022/04/28 03:17:41;;;;;;;79.35;52.00;;;;;;;6.64;100.00;99759.75;2043204;29;20203;-79
2022/04/28 03:18:42;;;;;;;79.30;50.13;;;;;;;6.65;100.00;99758.69;2042427;29;20227;-79
2022/04/28 03:19:43;;;;;;;88.38;51.30;;;;;;;6.66;100.00;99761.09;2042780;29;20195;-79
2022/04/28 03:20:47;;;;;;;85.83;52.00;;;;;;;6.69;100.00;99765.06;2042412;29;20266;-79
2022/04/28 03:21:47;;;;;;;84.57;52.13;;;;;;;6.66;100.00;99768.25;2049958;28;20551;-79
2022/04/28 03:22:49;;;;;;;81.03;50.90;;;;;;;6.67;100.00;99760.03;2050400;28;20202;-79
2022/04/28 03:23:50;;;;;;;83.00;51.08;;;;;;;6.67;100.00;99765.34;2050406;29;20292;-79
2022/04/28 03:24:53;;;;;;;88.60;51.80;;;;;;;6.63;100.00;99758.94;2058404;28;20197;-80
2022/04/28 03:25:55;;;;;;;85.90;50.83;;;;;;;6.65;100.00;99766.66;2050235;29;20222;-80
2022/04/28 03:26:59;;;;;;;85.90;51.58;;;;;;;6.66;100.00;99768.25;2042412;29;20284;-80
2022/04/28 03:28:02;;;;;;;83.07;51.22;;;;;;;6.58;100.00;99761.53;2042468;29;20214;-80
2022/04/28 03:29:04;;;;;;;81.68;51.80;;;;;;;6.55;100.00;99766.56;2042591;29;20741;-80
2022/04/28 03:30:08;;;;;;;80.07;51.08;;;;;;;6.51;100.00;99771.56;2042531;29;20289;-80
2022/04/28 03:31:27;;;;;;;80.80;50.78;;;;;;;6.49;100.00;99763.84;2049293;28;20238;-79
2022/04/28 03:32:43;;;;;;;82.63;50.50;;;;;;;6.45;100.00;99765.41;2060396;28;20216;-80
2022/04/28 03:33:48;;;;;;;82.23;49.77;;;;;;;6.40;100.00;99764.56;2058166;28;20196;-80
2022/04/28 03:34:49;;;;;;;79.88;49.50;;;;;;;6.35;100.00;99767.97;2058797;28;20201;-80
2022/04/28 03:35:51;;;;;;;81.05;50.33;;;;;;;6.35;100.00;99770.63;2058243;28;20365;-80
2022/04/28 03:36:52;;;;;;;84.35;50.78;;;;;;;6.36;100.00;99774.06;2049654;28;20274;-80
2022/04/28 03:37:59;;;;;;;85.03;51.40;;;;;;;6.35;100.00;99762.69;2058756;28;20205;-80
2022/04/28 03:39:05;;;;;;;79.20;49.97;;;;;;;6.43;100.00;99766.72;2058150;28;20219;-80
2022/04/28 03:40:08;;;;;;;84.97;50.90;;;;;;;6.40;100.00;99769.88;2058532;28;20260;-80
2022/04/28 03:41:10;;;;;;;80.88;49.88;;;;;;;6.46;100.00;99764.38;2058903;28;20209;-80
2022/04/28 03:42:14;;;;;;;82.80;51.08;;;;;;;6.50;100.00;99764.66;2050272;28;20696;-80
2022/04/28 03:43:14;;;;;;;83.30;50.65;;;;;;;6.42;100.00;99767.75;2058528;28;20190;-80
2022/04/28 03:44:16;;;;;;;81.47;51.33;;;;;;;6.47;100.00;99765.97;2058861;28;20190;-80
2022/04/28 03:45:18;;;;;;;86.63;51.95;;;;;;;6.41;100.00;99768.81;2058138;28;20297;-80
2022/04/28 03:46:24;;;;;;;78.38;49.33;;;;;;;6.44;100.00;99765.69;2059042;28;20194;-80
2022/04/28 03:47:32;;;;;;;81.03;49.60;;;;;;;6.41;100.00;99769.59;2065742;28;20201;-80
2022/04/28 03:48:34;;;;;;;79.60;50.20;;;;;;;6.41;100.00;99768.81;2058670;28;20186;-79
2022/04/28 03:49:35;;;;;;;88.97;51.33;;;;;;;6.40;100.00;99769.88;2058133;28;20205;-79
2022/04/28 03:50:39;;;;;;;73.15;47.95;;;;;;;6.36;100.00;99766.94;2058477;28;20194;-79
2022/04/28 03:51:40;;;;;;;81.72;49.33;;;;;;;6.36;100.00;99769.56;2057719;28;20229;-79
2022/04/28 03:52:43;;;;;;;79.45;50.30;;;;;;;6.34;100.00;99768.22;2058171;28;20686;-79
2022/04/28 03:53:44;;;;;;;76.65;50.92;;;;;;;6.29;100.00;99768.19;2066515;28;20201;-80
2022/04/28 03:54:48;;;;;;;77.93;50.93;;;;;;;6.37;100.00;99765.88;2050062;29;20202;-79
2022/04/28 03:55:48;;;;;;;76.63;50.22;;;;;;;6.38;100.00;99766.66;2058535;28;20233;-78
2022/04/28 03:56:50;;;;;;;80.80;51.60;;;;;;;6.38;100.00;99772.78;2066959;28;20196;-78
2022/04/28 03:57:53;;;;;;;81.85;51.17;;;;;;;6.36;100.00;99771.44;2058787;28;20232;-78
2022/04/28 03:58:55;;;;;;;82.07;50.10;;;;;;;6.39;100.00;99773.56;2050970;28;20217;-78
2022/04/28 03:59:56;;;;;;;77.78;50.40;;;;;;;6.43;100.00;99774.69;2050410;28;20210;-76
2022/04/28 04:01:16;;;;;;;80.15;49.72;;;;;;;6.47;100.00;99773.13;2058387;28;20234;-77
2022/04/28 04:02:39;;;;;;;80.50;50.42;;;;;;;6.50;100.00;99780.56;2058486;28;20280;-76
2022/04/28 04:03:40;;;;;;;80.00;49.85;;;;;;;6.48;100.00;99772.06;2057871;28;20212;-82
2022/04/28 04:04:42;;;;;;;78.32;50.33;;;;;;;6.50;100.00;99780.56;2058059;28;20236;-81
2022/04/28 04:05:44;;;;;;;81.80;51.55;;;;;;;6.49;100.00;99778.97;2049971;28;20226;-79
2022/04/28 04:06:46;;;;;;;84.30;51.88;;;;;;;6.49;100.00;99776.31;2049884;28;20689;-78
2022/04/28 04:08:09;;;;;;;77.97;49.13;;;;;;;6.50;100.00;99780.56;2058389;28;20181;-78
2022/04/28 04:09:27;;;;;;;80.85;50.80;;;;;;;6.49;100.00;99781.63;2058090;28;20197;-76
2022/04/28 04:10:31;;;;;;;81.47;51.13;;;;;;;6.53;100.00;99779.28;2049944;29;20233;-78
2022/04/28 04:11:34;;;;;;;78.72;50.85;;;;;;;6.54;100.00;99775.56;2058733;28;20676;-76
2022/04/28 04:12:37;;;;;;;87.17;50.67;;;;;;;6.59;100.00;99780.91;2058260;28;20607;-77
2022/04/28 04:13:52;;;;;;;85.97;50.47;;;;;;;6.65;100.00;99782.56;2058163;28;20181;-77
2022/04/28 04:14:52;;;;;;;76.88;51.40;;;;;;;6.62;100.00;99773.25;2057880;28;20296;-76
2022/04/28 04:15:56;;;;;;;82.67;52.87;;;;;;;6.65;100.00;99788.66;2058188;28;20197;-78
2022/04/28 04:17:17;;;;;;;79.72;52.20;;;;;;;6.77;100.00;99788.47;2063709;28;20655;-76
2022/04/28 04:18:19;;;;;;;91.68;52.88;;;;;;;6.85;100.00;99789.88;2058145;28;20654;-75
2022/04/28 04:19:25;;;;;;;83.55;53.55;;;;;;;6.91;100.00;99794.16;2057881;28;20668;-76
2022/04/28 04:20:30;;;;;;;87.45;53.33;;;;;;;6.82;100.00;99798.34;2050199;28;20194;-75
2022/04/28 04:21:32;;;;;;;93.70;55.15;;;;;;;6.94;100.00;99801.63;2049496;28;20260;-78
2022/04/28 04:22:35;;;;;;;87.32;54.58;;;;;;;6.91;100.00;99802.13;2050448;28;20566;-81
2022/04/28 04:23:38;;;;;;;76.57;51.53;;;;;;;6.91;100.00;99802.13;2050309;28;20202;-76
2022/04/28 04:24:41;;;;;;;81.57;51.00;;;;;;;6.97;100.00;99811.75;2051323;28;20218;-76
2022/04/28 04:25:45;;;;;;;87.70;53.38;;;;;;;6.94;100.00;99806.91;2052032;28;20195;-76
2022/04/28 04:26:53;;;;;;;82.25;52.88;;;;;;;6.87;100.00;99807.16;2051873;28;20186;-77
2022/04/28 04:28:08;;;;;;;80.28;52.50;;;;;;;6.90;100.00;99803.19;2053641;28;20194;-76
2022/04/28 04:29:17;;;;;;;76.75;50.25;;;;;;;6.91;100.00;99810.88;2060590;28;20576;-82
2022/04/28 04:33:35;;;;;;;74.82;48.45;;;;;;;7.01;100.00;99815.47;2058191;28;20232;-77
2022/04/28 04:34:40;;;;;;;80.28;51.25;;;;;;;7.02;100.00;99819.72;2058065;28;20217;-75
2022/04/28 04:35:41;;;;;;;74.13;50.15;;;;;;;7.03;100.00;99808.84;2058502;28;20341;-82
2022/04/28 04:36:43;;;;;;;78.45;51.88;;;;;;;7.06;100.00;99815.53;2057802;28;20680;-80
2022/04/28 04:37:47;;;;;;;71.57;49.33;;;;;;;7.01;100.00;99812.81;2058403;28;20225;-77
2022/04/28 04:38:49;;;;;;;79.10;50.67;;;;;;;7.06;100.00;99815.53;2057784;28;20193;-76
2022/04/28 04:39:51;;;;;;;83.00;50.80;;;;;;;7.07;100.00;99817.13;2050203;28;20246;-78
2022/04/28 04:40:53;;;;;;;79.18;51.13;;;;;;;7.07;100.00;99817.13;2051523;28;20221;-76
2022/04/28 04:41:54;;;;;;;74.35;50.05;;;;;;;7.08;100.00;99818.72;2049928;28;20233;-77
2022/04/28 04:42:58;;;;;;;74.40;49.47;;;;;;;7.11;100.00;99818.19;2049841;29;20246;-78
2022/04/28 04:44:00;;;;;;;76.97;51.40;;;;;;;7.10;100.00;99821.91;2050301;28;20701;-78
2022/04/28 04:45:06;;;;;;;81.22;51.70;;;;;;;7.12;100.00;99819.78;2049729;28;20202;-78
2022/04/28 04:46:26;;;;;;;77.07;50.35;;;;;;;7.16;100.00;99825.41;2060387;28;20305;-77
2022/04/28 04:47:45;;;;;;;83.93;51.10;;;;;;;7.11;100.00;99820.84;2063023;28;20181;-79
2022/04/28 04:48:53;;;;;;;80.45;50.95;;;;;;;7.12;100.00;99830.41;2057668;28;20201;-78
2022/04/28 04:50:21;;;;;;;82.90;50.45;;;;;;;7.12;100.00;99819.78;2057293;28;20201;-78
2022/04/28 04:51:43;;;;;;;71.38;49.15;;;;;;;7.13;100.00;99816.13;2057850;28;20731;-78
2022/04/28 04:53:08;;;;;;;76.80;48.92;;;;;;;7.19;100.00;99814.28;2058159;28;20683;-78
2022/04/28 04:54:09;;;;;;;75.82;50.22;;;;;;;7.19;100.00;99815.06;2058332;28;20194;-78
2022/04/28 04:55:11;;;;;;;79.00;50.87;;;;;;;7.18;100.00;99818.78;2058233;28;20190;-78
2022/04/28 04:56:17;;;;;;;77.00;50.78;;;;;;;7.22;100.00;99814.59;2067283;28;20257;-78
2022/04/28 04:57:21;;;;;;;76.63;51.67;;;;;;;7.28;100.00;99816.19;2066209;28;20196;-80
2022/04/28 04:58:22;;;;;;;79.18;50.42;;;;;;;7.27;100.00;99803.19;2058631;28;20201;-80
2022/04/28 04:59:26;;;;;;;75.38;50.70;;;;;;;7.31;100.00;99813.06;2065714;28;20593;-79
2022/04/28 05:00:29;;;;;;;77.25;50.80;;;;;;;7.29;100.00;99817.78;2065159;28;20221;-80
2022/04/28 05:01:49;;;;;;;76.45;50.58;;;;;;;7.31;100.00;99817.56;2058262;28;20264;-79
2022/04/28 05:03:29;;;;;;;74.97;50.42;;;;;;;7.32;100.00;99819.16;2058090;28;20276;-80
2022/04/28 05:04:36;;;;;;;74.22;50.03;;;;;;;7.29;100.00;99806.38;2058744;28;20181;-76
2022/04/28 05:06:10;;;;;;;81.40;49.15;;;;;;;7.34;100.00;99817.84;2049289;28;20225;-76
2022/04/28 05:07:30;;;;;;;77.57;50.58;;;;;;;7.40;100.00;99820.53;2065724;28;20281;-76
2022/04/28 05:08:32;;;;;;;74.90;50.33;;;;;;;7.42;100.00;99818.41;2057528;28;20209;-75
2022/04/28 05:09:40;;;;;;;79.85;52.20;;;;;;;7.43;100.00;99817.34;2058564;28;20680;-76
2022/04/28 05:10:42;;;;;;;72.95;49.33;;;;;;;7.43;100.00;99817.34;2057501;28;20198;-79
2022/04/28 05:11:44;;;;;;;78.85;49.85;;;;;;;7.43;100.00;99815.50;2057652;28;20193;-76
2022/04/28 05:12:54;;;;;;;81.78;52.97;;;;;;;7.47;100.00;99816.59;2064492;28;20279;-77
2022/04/28 05:14:10;;;;;;;81.05;51.47;;;;;;;7.52;100.00;99823.78;2051733;28;20613;-81
2022/04/28 05:15:10;;;;;;;76.47;52.00;;;;;;;7.53;100.00;99817.41;2057649;28;20200;-80